Time;durP1;ratioP1;P1;durP2;ratioP2;P2;SDS_P1;SDS_P2;PMS_P1;PMS_P2;Temp;Humidity;BMP_temperature;BMP_pressure;BME280_temperature;BME280_humidity;BME280_pressure;Samples;Min_cycle;Max_cycle;Signal;HPM_P1;HPM_P2
2023/12/22 00:02:17;;;;;;;10.27;1.42;;;;;;;;;;5090311;28;20055;-74
2023/12/22 00:04:44;;;;;;;12.65;1.95;;;;;;;;;;5089978;28;20075;-76
2023/12/22 00:07:10;;;;;;;13.93;2.00;;;;;;;;;;5090048;28;20544;-75
2023/12/22 00:09:37;;;;;;;10.65;2.13;;;;;;;;;;5089619;28;20123;-76
2023/12/22 00:12:04;;;;;;;16.00;2.13;;;;;;;;;;5089856;28;20121;-75
2023/12/22 00:14:31;;;;;;;12.45;1.90;;;;;;;;;;5088776;28;20626;-75
2023/12/22 00:16:57;;;;;;;12.23;2.20;;;;;;;;;;5089803;28;20534;-74
2023/12/22 00:19:24;;;;;;;9.45;1.95;;;;;;;;;;5089490;28;20051;-75
2023/12/22 00:21:51;;;;;;;14.07;2.05;;;;;;;;;;5089806;28;20044;-75
2023/12/22 00:24:17;;;;;;;15.95;1.88;;;;;;;;;;5089237;28;20054;-76
2023/12/22 00:26:44;;;;;;;12.45;1.77;;;;;;;;;;5089446;28;20048;-75
2023/12/22 00:29:11;;;;;;;14.18;2.10;;;;;;;;;;5089699;28;20040;-75
2023/12/22 00:31:38;;;;;;;7.97;1.77;;;;;;;;;;5089650;28;20131;-75
2023/12/22 00:34:05;;;;;;;10.98;1.90;;;;;;;;;;5089670;28;20044;-74
2023/12/22 00:36:32;;;;;;;11.48;1.77;;;;;;;;;;5089704;28;20105;-75
2023/12/22 00:38:58;;;;;;;12.38;1.98;;;;;;;;;;5089632;28;20055;-75
2023/12/22 00:41:28;;;;;;;15.57;2.25;;;;;;;;;;5089296;28;20048;-75
2023/12/22 00:43:54;;;;;;;11.50;1.67;;;;;;;;;;5089559;28;20048;-74
2023/12/22 00:46:21;;;;;;;13.88;1.90;;;;;;;;;;5089071;28;20454;-74
2023/12/22 00:48:48;;;;;;;8.75;1.77;;;;;;;;;;5089372;28;20048;-76
2023/12/22 00:51:16;;;;;;;13.20;2.20;;;;;;;;;;5088931;28;20090;-71
2023/12/22 00:53:43;;;;;;;18.25;2.05;;;;;;;;;;5089441;28;20040;-73
2023/12/22 00:56:12;;;;;;;10.40;1.77;;;;;;;;;;5088796;28;20419;-75
2023/12/22 00:58:40;;;;;;;12.55;1.30;;;;;;;;;;5089530;28;20109;-75
2023/12/22 01:01:06;;;;;;;16.55;2.30;;;;;;;;;;5089282;28;20048;-71
2023/12/22 01:03:33;;;;;;;8.23;1.20;;;;;;;;;;5089135;28;20550;-75
2023/12/22 01:06:00;;;;;;;12.07;1.60;;;;;;;;;;5088521;28;20059;-75
2023/12/22 01:08:27;;;;;;;10.77;1.88;;;;;;;;;;5089398;28;20044;-76
2023/12/22 01:10:53;;;;;;;8.80;1.42;;;;;;;;;;5090764;28;20040;-74
2023/12/22 01:13:20;;;;;;;10.13;1.50;;;;;;;;;;5093387;28;20054;-75
2023/12/22 01:15:47;;;;;;;10.52;2.03;;;;;;;;;;5093107;28;20127;-70
2023/12/22 01:18:14;;;;;;;10.27;1.40;;;;;;;;;;5093398;28;20623;-72
2023/12/22 01:20:40;;;;;;;4.93;1.30;;;;;;;;;;5093124;28;20048;-76
2023/12/22 01:23:07;;;;;;;8.00;1.38;;;;;;;;;;5093454;28;20056;-74
2023/12/22 01:25:34;;;;;;;7.38;1.45;;;;;;;;;;5092436;28;20059;-73
2023/12/22 01:28:00;;;;;;;9.25;1.20;;;;;;;;;;5093148;28;20147;-74
2023/12/22 01:30:31;;;;;;;5.95;1.30;;;;;;;;;;5092671;28;20044;-76
2023/12/22 01:32:57;;;;;;;6.93;1.40;;;;;;;;;;5093140;28;20124;-75
2023/12/22 01:35:24;;;;;;;7.05;1.20;;;;;;;;;;5092928;28;20044;-74
2023/12/22 01:37:51;;;;;;;6.75;1.75;;;;;;;;;;5092635;28;20492;-74
2023/12/22 01:40:18;;;;;;;6.88;1.35;;;;;;;;;;5092296;28;20055;-73
2023/12/22 01:42:46;;;;;;;8.30;1.25;;;;;;;;;;5092917;28;20087;-75
2023/12/22 01:45:13;;;;;;;8.93;1.98;;;;;;;;;;5092640;28;20044;-73
2023/12/22 01:47:40;;;;;;;5.50;1.48;;;;;;;;;;5092714;28;20048;-76
2023/12/22 01:50:10;;;;;;;3.35;0.90;;;;;;;;;;5092687;28;20080;-74
2023/12/22 01:52:38;;;;;;;;;;;;;;;;;;5093298;28;20048;-76
2023/12/22 01:55:06;;;;;;;6.20;0.90;;;;;;;;;;5092051;28;19920;-75
2023/12/22 01:57:35;;;;;;;3.78;0.80;;;;;;;;;;5092247;28;20047;-75
2023/12/22 02:00:03;;;;;;;5.95;1.00;;;;;;;;;;5092387;28;20437;-75
2023/12/22 02:02:30;;;;;;;7.20;0.88;;;;;;;;;;5092428;28;20040;-74
2023/12/22 02:04:58;;;;;;;4.85;0.52;;;;;;;;;;5092477;28;20071;-75
2023/12/22 02:07:26;;;;;;;3.58;0.77;;;;;;;;;;5092508;28;20181;-75
2023/12/22 02:09:53;;;;;;;3.42;0.80;;;;;;;;;;5092245;28;20087;-72
2023/12/22 02:12:20;;;;;;;4.15;0.85;;;;;;;;;;5092091;28;20048;-75
2023/12/22 02:14:46;;;;;;;5.05;0.70;;;;;;;;;;5092278;28;20059;-75
2023/12/22 02:17:36;;;;;;;5.78;1.02;;;;;;;;;;5092097;28;20067;-75
2023/12/22 02:20:04;;;;;;;2.73;0.60;;;;;;;;;;5092155;28;20132;-75
2023/12/22 02:22:31;;;;;;;4.00;0.60;;;;;;;;;;5091777;28;20643;-75
2023/12/22 02:24:58;;;;;;;4.50;0.93;;;;;;;;;;5091434;28;20550;-74
2023/12/22 02:27:27;;;;;;;4.18;0.70;;;;;;;;;;5092132;28;20037;-75
2023/12/22 02:30:02;;;;;;;3.20;0.50;;;;;;;;;;5092037;28;20059;-75
2023/12/22 02:32:34;;;;;;;1.80;0.50;;;;;;;;;;5091653;28;20470;-75
2023/12/22 02:35:06;;;;;;;2.35;0.77;;;;;;;;;;5091670;28;20048;-75
2023/12/22 02:37:35;;;;;;;3.03;0.60;;;;;;;;;;5091416;28;20508;-75
2023/12/22 02:40:02;;;;;;;3.70;0.65;;;;;;;;;;5092003;28;20253;-75
2023/12/22 02:42:30;;;;;;;2.78;0.82;;;;;;;;;;5091463;28;20055;-75
2023/12/22 02:44:58;;;;;;;4.53;0.70;;;;;;;;;;5091814;28;20139;-75
2023/12/22 02:47:27;;;;;;;4.88;0.60;;;;;;;;;;5091187;28;20094;-75
2023/12/22 02:49:54;;;;;;;2.70;0.57;;;;;;;;;;5091592;28;20043;-75
2023/12/22 02:52:21;;;;;;;2.67;0.30;;;;;;;;;;5091207;28;20503;-75
2023/12/22 02:54:48;;;;;;;2.35;0.50;;;;;;;;;;5091463;28;20052;-75
2023/12/22 02:57:14;;;;;;;5.20;0.70;;;;;;;;;;5091338;28;20048;-74
2023/12/22 02:59:41;;;;;;;3.42;0.88;;;;;;;;;;5091362;28;20512;-75
2023/12/22 03:02:08;;;;;;;1.70;0.45;;;;;;;;;;5091260;28;20052;-72
2023/12/22 03:04:34;;;;;;;5.00;0.70;;;;;;;;;;5091324;28;20481;-75
2023/12/22 03:07:01;;;;;;;1.83;0.43;;;;;;;;;;5090966;28;20533;-75
2023/12/22 03:09:28;;;;;;;4.03;0.73;;;;;;;;;;5090858;28;20488;-74
2023/12/22 03:11:56;;;;;;;3.20;0.65;;;;;;;;;;5091026;28;20044;-75
2023/12/22 03:14:23;;;;;;;2.42;0.47;;;;;;;;;;5091259;28;20055;-75
2023/12/22 03:16:49;;;;;;;2.45;0.40;;;;;;;;;;5090685;28;20113;-75
2023/12/22 03:19:16;;;;;;;3.28;0.50;;;;;;;;;;5091196;28;20136;-75
2023/12/22 03:21:43;;;;;;;3.60;0.50;;;;;;;;;;5091045;28;20194;-76
2023/12/22 03:24:09;;;;;;;2.28;0.30;;;;;;;;;;5091001;28;20064;-76
2023/12/22 03:26:36;;;;;;;4.28;0.47;;;;;;;;;;5090107;28;20056;-71
2023/12/22 03:29:03;;;;;;;3.15;0.43;;;;;;;;;;5090880;28;20697;-70
2023/12/22 03:31:32;;;;;;;1.10;0.20;;;;;;;;;;5090583;28;20512;-71
2023/12/22 03:33:59;;;;;;;2.40;0.32;;;;;;;;;;5090430;28;20052;-72
2023/12/22 03:36:26;;;;;;;1.45;0.30;;;;;;;;;;5090486;28;20045;-75
2023/12/22 03:38:53;;;;;;;1.63;0.30;;;;;;;;;;5090546;28;20062;-72
2023/12/22 03:41:19;;;;;;;2.78;0.47;;;;;;;;;;5090753;28;20070;-74
2023/12/22 03:43:46;;;;;;;1.63;0.38;;;;;;;;;;5072569;28;20044;-75
2023/12/22 03:46:13;;;;;;;0.45;0.22;;;;;;;;;;5090254;28;20078;-75
2023/12/22 03:48:39;;;;;;;1.90;0.30;;;;;;;;;;5090230;28;20044;-75
2023/12/22 03:51:06;;;;;;;2.22;0.35;;;;;;;;;;5090477;28;20079;-74
2023/12/22 03:53:33;;;;;;;1.48;0.43;;;;;;;;;;5090342;28;20051;-75
2023/12/22 03:55:59;;;;;;;0.68;0.13;;;;;;;;;;5090299;28;20094;-74
2023/12/22 03:58:26;;;;;;;1.17;0.30;;;;;;;;;;5090377;28;20078;-75
2023/12/22 04:00:53;;;;;;;1.10;0.20;;;;;;;;;;5089920;28;20044;-73
2023/12/22 04:03:19;;;;;;;0.60;0.22;;;;;;;;;;5089942;28;20044;-75
2023/12/22 04:05:46;;;;;;;0.50;0.15;;;;;;;;;;5090122;28;20148;-75
2023/12/22 04:08:13;;;;;;;1.70;0.32;;;;;;;;;;5090039;28;20105;-74
2023/12/22 04:10:40;;;;;;;1.00;0.20;;;;;;;;;;5089983;28;20048;-76
2023/12/22 04:13:06;;;;;;;1.70;0.30;;;;;;;;;;5089855;28;20048;-75
2023/12/22 04:15:33;;;;;;;1.73;0.60;;;;;;;;;;5071957;28;20044;-75
2023/12/22 04:17:59;;;;;;;1.98;0.30;;;;;;;;;;5089506;28;20130;-74
2023/12/22 04:20:27;;;;;;;0.55;0.17;;;;;;;;;;5089926;28;20048;-75
2023/12/22 04:22:53;;;;;;;2.67;0.20;;;;;;;;;;5089631;28;20055;-73
2023/12/22 04:25:22;;;;;;;1.45;0.20;;;;;;;;;;5089490;28;20059;-75
2023/12/22 04:27:49;;;;;;;0.75;0.20;;;;;;;;;;5089404;28;20461;-75
2023/12/22 04:30:16;;;;;;;0.50;0.20;;;;;;;;;;5090181;28;20095;-74
2023/12/22 04:32:43;;;;;;;0.90;0.10;;;;;;;;;;5089807;28;20181;-76
2023/12/22 04:35:09;;;;;;;2.10;0.30;;;;;;;;;;5089632;28;20050;-75
2023/12/22 04:37:36;;;;;;;0.32;0.10;;;;;;;;;;5089036;28;20055;-76
2023/12/22 04:40:03;;;;;;;0.70;0.13;;;;;;;;;;5089646;28;20040;-75
2023/12/22 04:42:30;;;;;;;0.65;0.10;;;;;;;;;;5089495;28;20051;-74
2023/12/22 04:44:56;;;;;;;1.73;0.20;;;;;;;;;;5088567;28;20044;-73
2023/12/22 04:47:24;;;;;;;2.78;0.13;;;;;;;;;;5089213;28;20621;-75
2023/12/22 04:49:50;;;;;;;0.60;0.10;;;;;;;;;;5089527;28;20047;-75
2023/12/22 04:52:17;;;;;;;2.55;0.38;;;;;;;;;;5089403;28;20615;-75
2023/12/22 04:54:44;;;;;;;0.45;0.22;;;;;;;;;;5089372;28;20100;-76
2023/12/22 04:57:11;;;;;;;0.45;0.20;;;;;;;;;;5089023;28;20055;-76
2023/12/22 04:59:40;;;;;;;0.45;0.10;;;;;;;;;;5089162;28;20055;-76
2023/12/22 05:02:07;;;;;;;0.15;0.00;;;;;;;;;;5089323;28;20120;-74
2023/12/22 05:04:33;;;;;;;0.10;0.10;;;;;;;;;;5089312;28;20044;-75
2023/12/22 05:07:01;;;;;;;1.73;0.20;;;;;;;;;;5088711;28;20104;-76
2023/12/22 05:09:28;;;;;;;1.20;0.20;;;;;;;;;;5088227;28;20122;-75
2023/12/22 05:11:55;;;;;;;0.57;0.28;;;;;;;;;;5088906;28;20051;-72
2023/12/22 05:14:21;;;;;;;1.15;0.22;;;;;;;;;;5088341;28;20040;-75
2023/12/22 05:16:48;;;;;;;0.15;0.15;;;;;;;;;;5088728;28;20109;-74
2023/12/22 05:19:15;;;;;;;0.52;0.10;;;;;;;;;;5088411;28;20043;-75
2023/12/22 05:21:41;;;;;;;1.48;0.20;;;;;;;;;;5088570;28;20467;-74
2023/12/22 05:24:08;;;;;;;0.10;0.10;;;;;;;;;;5088353;28;20082;-75
2023/12/22 05:26:35;;;;;;;0.10;0.10;;;;;;;;;;5088165;28;20056;-75
2023/12/22 05:29:01;;;;;;;1.17;0.10;;;;;;;;;;5088432;28;20044;-74
2023/12/22 05:31:28;;;;;;;0.30;0.10;;;;;;;;;;5088283;28;20132;-74
2023/12/22 05:33:55;;;;;;;0.13;0.13;;;;;;;;;;5088409;28;20131;-75
2023/12/22 05:36:22;;;;;;;0.28;0.10;;;;;;;;;;5088492;28;20633;-75
2023/12/22 05:38:48;;;;;;;0.10;0.10;;;;;;;;;;5088286;28;20079;-74
2023/12/22 05:41:15;;;;;;;0.57;0.15;;;;;;;;;;5089351;28;20053;-76
2023/12/22 05:43:42;;;;;;;0.20;0.17;;;;;;;;;;5071016;28;20048;-75
2023/12/22 05:46:09;;;;;;;0.17;0.00;;;;;;;;;;5088701;28;20049;-76
2023/12/22 05:48:36;;;;;;;0.10;0.10;;;;;;;;;;5088826;28;20055;-75
2023/12/22 05:51:07;;;;;;;0.32;0.10;;;;;;;;;;5088764;28;20575;-75
2023/12/22 05:53:34;;;;;;;0.95;0.20;;;;;;;;;;5088696;28;20143;-76
2023/12/22 05:56:00;;;;;;;0.32;0.10;;;;;;;;;;5089394;28;20105;-76
2023/12/22 05:58:27;;;;;;;0.90;0.20;;;;;;;;;;5092532;28;20105;-74
2023/12/22 06:00:54;;;;;;;0.40;0.20;;;;;;;;;;5092572;28;20455;-75
2023/12/22 06:03:21;;;;;;;1.38;0.40;;;;;;;;;;5092311;28;20040;-75
2023/12/22 06:05:48;;;;;;;0.60;0.25;;;;;;;;;;5092241;28;20052;-76
2023/12/22 06:08:15;;;;;;;1.23;0.30;;;;;;;;;;5092003;28;20094;-74
2023/12/22 06:10:41;;;;;;;0.40;0.20;;;;;;;;;;5092075;28;20415;-76
2023/12/22 06:13:08;;;;;;;0.10;0.10;;;;;;;;;;5092406;28;20076;-74
2023/12/22 06:15:35;;;;;;;1.38;0.30;;;;;;;;;;5092427;28;20044;-75
2023/12/22 06:18:01;;;;;;;1.13;0.28;;;;;;;;;;5092103;28;20456;-75
2023/12/22 06:20:28;;;;;;;0.70;0.30;;;;;;;;;;5092216;28;20052;-75
2023/12/22 06:22:55;;;;;;;0.40;0.28;;;;;;;;;;5092498;28;20051;-75
2023/12/22 06:25:21;;;;;;;0.20;0.20;;;;;;;;;;5091331;28;20087;-75
2023/12/22 06:27:48;;;;;;;0.40;0.10;;;;;;;;;;5091478;28;20127;-75
2023/12/22 06:30:15;;;;;;;0.98;0.20;;;;;;;;;;5091331;28;20036;-74
2023/12/22 06:32:42;;;;;;;0.88;0.17;;;;;;;;;;5091428;28;20044;-74
2023/12/22 06:35:10;;;;;;;0.25;0.20;;;;;;;;;;5091153;28;20144;-74
2023/12/22 06:37:42;;;;;;;0.57;0.10;;;;;;;;;;5089005;28;20052;-75
2023/12/22 06:40:09;;;;;;;0.00;0.00;;;;;;;;;;5090774;28;20048;-74
2023/12/22 06:42:36;;;;;;;0.65;0.20;;;;;;;;;;5091057;28;20612;-74
2023/12/22 06:45:03;;;;;;;0.43;0.10;;;;;;;;;;5090822;28;20504;-74
2023/12/22 06:47:29;;;;;;;2.92;0.20;;;;;;;;;;5090879;28;20040;-76
2023/12/22 06:49:56;;;;;;;0.55;0.10;;;;;;;;;;5090886;28;20574;-76
2023/12/22 06:52:23;;;;;;;0.90;0.30;;;;;;;;;;5091255;28;20048;-75
2023/12/22 06:54:50;;;;;;;0.63;0.30;;;;;;;;;;5090910;28;20044;-75
2023/12/22 06:57:17;;;;;;;0.63;0.30;;;;;;;;;;5090911;28;20139;-74
2023/12/22 06:59:48;;;;;;;0.30;0.20;;;;;;;;;;5090567;28;20123;-75
2023/12/22 07:02:15;;;;;;;0.52;0.20;;;;;;;;;;5090859;28;20052;-71
2023/12/22 07:05:19;;;;;;;0.00;0.00;;;;;;;;;;5090749;28;20093;-75
2023/12/22 07:07:46;;;;;;;0.22;0.10;;;;;;;;;;5088074;28;20044;-75
2023/12/22 07:10:13;;;;;;;0.10;0.08;;;;;;;;;;5090356;28;20052;-75
2023/12/22 07:12:40;;;;;;;0.73;0.57;;;;;;;;;;5088117;28;20044;-75
2023/12/22 07:15:09;;;;;;;0.85;0.30;;;;;;;;;;5090390;28;20105;-75
2023/12/22 07:17:37;;;;;;;1.83;0.30;;;;;;;;;;5090605;28;20044;-73
2023/12/22 07:20:04;;;;;;;0.95;0.30;;;;;;;;;;5090549;28;20117;-75
2023/12/22 07:22:31;;;;;;;0.28;0.10;;;;;;;;;;5090770;28;20052;-74
2023/12/22 07:24:58;;;;;;;0.85;0.10;;;;;;;;;;5090325;28;20062;-74
2023/12/22 07:27:25;;;;;;;0.50;0.28;;;;;;;;;;5090659;28;20044;-74
2023/12/22 07:29:54;;;;;;;2.15;0.32;;;;;;;;;;5092544;28;20048;-75
2023/12/22 07:32:20;;;;;;;1.15;0.30;;;;;;;;;;5097773;28;20123;-76
2023/12/22 07:34:47;;;;;;;0.35;0.20;;;;;;;;;;5099915;28;20044;-75
2023/12/22 07:37:14;;;;;;;0.38;0.10;;;;;;;;;;5100133;28;20075;-72
2023/12/22 07:39:41;;;;;;;0.52;0.20;;;;;;;;;;5100239;28;20089;-75
2023/12/22 07:42:08;;;;;;;0.75;0.32;;;;;;;;;;5100901;28;20135;-77
2023/12/22 07:44:35;;;;;;;1.17;0.20;;;;;;;;;;5100632;28;20135;-76
2023/12/22 07:47:02;;;;;;;0.70;0.38;;;;;;;;;;5100649;28;20043;-77
2023/12/22 07:49:29;;;;;;;0.28;0.15;;;;;;;;;;5101705;28;20352;-76
2023/12/22 07:51:58;;;;;;;1.15;0.25;;;;;;;;;;5101872;28;20332;-75
2023/12/22 07:54:25;;;;;;;1.95;0.28;;;;;;;;;;5101637;28;20044;-73
2023/12/22 07:56:52;;;;;;;0.50;0.20;;;;;;;;;;5101751;28;20051;-76
2023/12/22 07:59:19;;;;;;;0.43;0.20;;;;;;;;;;5101719;28;20050;-76
2023/12/22 08:01:56;;;;;;;0.50;0.20;;;;;;;;;;5080783;28;20083;-76
2023/12/22 08:04:23;;;;;;;1.52;0.38;;;;;;;;;;5095077;28;20236;-78
2023/12/22 08:06:50;;;;;;;0.60;0.20;;;;;;;;;;5100907;28;20111;-77
2023/12/22 08:09:17;;;;;;;0.68;0.20;;;;;;;;;;5100352;28;20442;-76
2023/12/22 08:11:46;;;;;;;0.57;0.20;;;;;;;;;;5101200;28;20050;-71
2023/12/22 08:14:13;;;;;;;0.40;0.20;;;;;;;;;;5096057;28;20047;-72
2023/12/22 08:16:39;;;;;;;0.17;0.10;;;;;;;;;;5100297;28;20082;-74
2023/12/22 08:19:06;;;;;;;0.60;0.30;;;;;;;;;;5100758;28;20107;-77
2023/12/22 08:21:34;;;;;;;0.38;0.20;;;;;;;;;;5099761;28;20063;-77
2023/12/22 08:24:12;;;;;;;0.70;0.28;;;;;;;;;;5086832;28;20048;-75
2023/12/22 08:26:51;;;;;;;0.22;0.10;;;;;;;;;;5097833;28;20056;-74
2023/12/22 08:29:19;;;;;;;0.25;0.10;;;;;;;;;;5099605;28;20090;-74
2023/12/22 08:31:46;;;;;;;0.80;0.30;;;;;;;;;;5100521;28;20089;-75
2023/12/22 08:34:13;;;;;;;0.10;0.10;;;;;;;;;;5100989;28;20085;-76
2023/12/22 08:36:40;;;;;;;0.25;0.20;;;;;;;;;;5099324;28;20130;-75
2023/12/22 08:39:07;;;;;;;0.30;0.25;;;;;;;;;;5099773;28;20063;-76
2023/12/22 08:41:37;;;;;;;0.73;0.20;;;;;;;;;;5099666;28;20040;-74
2023/12/22 08:44:05;;;;;;;0.63;0.20;;;;;;;;;;5087942;28;20408;-84
2023/12/22 08:46:32;;;;;;;0.20;0.20;;;;;;;;;;5094429;28;20313;-80
2023/12/22 08:48:59;;;;;;;0.10;0.10;;;;;;;;;;5075297;28;20049;-79
2023/12/22 08:51:27;;;;;;;0.38;0.25;;;;;;;;;;5086830;28;20044;-73
2023/12/22 08:53:54;;;;;;;0.50;0.25;;;;;;;;;;5099299;28;20255;-71
2023/12/22 08:56:25;;;;;;;0.38;0.25;;;;;;;;;;5099623;28;20048;-75
2023/12/22 08:58:54;;;;;;;0.13;0.13;;;;;;;;;;5099499;28;20076;-76
2023/12/22 09:01:22;;;;;;;0.90;0.25;;;;;;;;;;5076686;28;20115;-74
2023/12/22 09:03:49;;;;;;;0.75;0.20;;;;;;;;;;5075005;28;20067;-76
2023/12/22 09:06:21;;;;;;;0.63;0.10;;;;;;;;;;5077419;28;20052;-77
2023/12/22 09:08:49;;;;;;;2.60;0.40;;;;;;;;;;5097550;28;20051;-76
2023/12/22 09:11:17;;;;;;;1.02;0.30;;;;;;;;;;5072018;28;20114;-75
2023/12/22 09:13:44;;;;;;;0.45;0.30;;;;;;;;;;5078996;28;20047;-76
2023/12/22 09:16:14;;;;;;;1.27;0.30;;;;;;;;;;5090028;28;20154;-76
2023/12/22 09:18:44;;;;;;;0.85;0.40;;;;;;;;;;5072696;28;20087;-74
2023/12/22 09:21:12;;;;;;;0.70;0.43;;;;;;;;;;5074707;28;20056;-75
2023/12/22 09:23:38;;;;;;;0.95;0.55;;;;;;;;;;5091647;28;20040;-75
2023/12/22 09:26:05;;;;;;;0.77;0.40;;;;;;;;;;5093766;28;20052;-76
2023/12/22 09:28:32;;;;;;;1.38;0.40;;;;;;;;;;5092490;28;20055;-75
2023/12/22 09:30:58;;;;;;;1.88;0.45;;;;;;;;;;5093377;28;20044;-74
2023/12/22 09:33:25;;;;;;;0.60;0.25;;;;;;;;;;5096425;28;20050;-76
2023/12/22 09:35:52;;;;;;;0.77;0.38;;;;;;;;;;5098780;28;20044;-75
2023/12/22 09:38:20;;;;;;;0.50;0.30;;;;;;;;;;5095657;28;20336;-75
2023/12/22 09:40:46;;;;;;;0.40;0.30;;;;;;;;;;5097555;28;20043;-74
2023/12/22 09:43:15;;;;;;;2.92;0.35;;;;;;;;;;5104363;28;20044;-76
2023/12/22 09:45:42;;;;;;;0.30;0.22;;;;;;;;;;5104257;28;20077;-75
2023/12/22 09:48:13;;;;;;;0.70;0.40;;;;;;;;;;5104254;28;20056;-75
2023/12/22 09:50:42;;;;;;;0.63;0.30;;;;;;;;;;5097023;28;20079;-75
2023/12/22 09:53:12;;;;;;;0.43;0.20;;;;;;;;;;5082652;28;20047;-74
2023/12/22 09:55:45;;;;;;;2.03;0.20;;;;;;;;;;5083045;28;20086;-74
2023/12/22 09:58:14;;;;;;;1.63;0.43;;;;;;;;;;5080987;28;20083;-74
2023/12/22 10:00:42;;;;;;;0.63;0.25;;;;;;;;;;5075497;28;20072;-73
2023/12/22 10:03:11;;;;;;;0.68;0.30;;;;;;;;;;5072516;28;20458;-75
2023/12/22 10:05:41;;;;;;;0.70;0.30;;;;;;;;;;5072483;28;20417;-74
2023/12/22 10:08:11;;;;;;;0.77;0.40;;;;;;;;;;5072331;28;20080;-73
2023/12/22 10:10:43;;;;;;;0.40;0.25;;;;;;;;;;5087143;28;20044;-74
2023/12/22 10:13:10;;;;;;;0.45;0.30;;;;;;;;;;5091940;28;20048;-74
2023/12/22 10:15:41;;;;;;;0.22;0.20;;;;;;;;;;5092059;28;20055;-73
2023/12/22 10:18:09;;;;;;;0.32;0.20;;;;;;;;;;5092074;28;20044;-73
2023/12/22 10:20:36;;;;;;;1.17;0.20;;;;;;;;;;5092614;28;20059;-73
2023/12/22 10:23:03;;;;;;;0.50;0.30;;;;;;;;;;5091963;28;20095;-73
2023/12/22 10:25:30;;;;;;;0.10;0.10;;;;;;;;;;5092188;28;20048;-73
2023/12/22 10:27:57;;;;;;;0.73;0.38;;;;;;;;;;5092101;28;20083;-74
2023/12/22 10:30:27;;;;;;;0.73;0.22;;;;;;;;;;5091943;28;20058;-74
2023/12/22 10:32:56;;;;;;;1.98;0.63;;;;;;;;;;5091777;28;20109;-74
2023/12/22 10:35:23;;;;;;;1.85;0.60;;;;;;;;;;5090141;28;20554;-74
2023/12/22 10:37:53;;;;;;;1.65;0.65;;;;;;;;;;5090237;28;20044;-75
2023/12/22 10:40:20;;;;;;;2.30;0.50;;;;;;;;;;5095098;28;20048;-75
2023/12/22 10:42:48;;;;;;;0.30;0.30;;;;;;;;;;5098678;28;20074;-73
2023/12/22 10:45:17;;;;;;;0.45;0.30;;;;;;;;;;5097706;28;20105;-73
2023/12/22 10:47:44;;;;;;;1.27;0.32;;;;;;;;;;5094174;28;20244;-74
2023/12/22 10:50:14;;;;;;;1.38;0.30;;;;;;;;;;5102651;28;20044;-75
2023/12/22 10:52:41;;;;;;;0.10;0.10;;;;;;;;;;5097658;28;20040;-75
2023/12/22 10:55:08;;;;;;;0.45;0.20;;;;;;;;;;5098979;28;20044;-74
2023/12/22 10:57:37;;;;;;;1.38;0.40;;;;;;;;;;5094036;28;20159;-74
2023/12/22 11:00:07;;;;;;;0.30;0.20;;;;;;;;;;5097992;28;20079;-74
2023/12/22 11:02:35;;;;;;;1.52;0.30;;;;;;;;;;5092147;28;20068;-73
2023/12/22 11:05:08;;;;;;;0.68;0.20;;;;;;;;;;5074231;28;20459;-73
2023/12/22 11:07:37;;;;;;;0.43;0.20;;;;;;;;;;5080810;28;20040;-74
2023/12/22 11:10:08;;;;;;;0.63;0.35;;;;;;;;;;5081896;28;20045;-74
2023/12/22 11:12:38;;;;;;;0.85;0.40;;;;;;;;;;5080177;28;20051;-72
2023/12/22 11:15:06;;;;;;;0.20;0.20;;;;;;;;;;5082835;28;20052;-75
2023/12/22 11:17:35;;;;;;;0.52;0.32;;;;;;;;;;5082651;28;20048;-73
2023/12/22 11:20:06;;;;;;;0.82;0.40;;;;;;;;;;5074766;28;20052;-74
2023/12/22 11:22:36;;;;;;;0.52;0.30;;;;;;;;;;5070524;28;20112;-74
2023/12/22 11:25:04;;;;;;;0.80;0.40;;;;;;;;;;5070022;28;20041;-73
2023/12/22 11:27:33;;;;;;;2.05;0.50;;;;;;;;;;5069066;28;20076;-73
2023/12/22 11:30:01;;;;;;;1.27;0.40;;;;;;;;;;5070513;28;20044;-74
2023/12/22 11:32:29;;;;;;;0.70;0.30;;;;;;;;;;5069119;28;20044;-73
2023/12/22 11:34:56;;;;;;;0.30;0.30;;;;;;;;;;5070835;28;20044;-75
2023/12/22 11:37:23;;;;;;;0.93;0.50;;;;;;;;;;5070470;28;20051;-74
2023/12/22 11:39:51;;;;;;;0.60;0.30;;;;;;;;;;5070456;28;20048;-75
2023/12/22 11:42:23;;;;;;;0.93;0.43;;;;;;;;;;5072898;28;20044;-72
2023/12/22 11:44:50;;;;;;;1.60;0.40;;;;;;;;;;5070629;28;20044;-74
2023/12/22 11:47:22;;;;;;;0.90;0.40;;;;;;;;;;5069642;28;20540;-73
2023/12/22 11:49:50;;;;;;;2.53;0.63;;;;;;;;;;5070197;28;20052;-74
2023/12/22 11:52:18;;;;;;;1.02;0.50;;;;;;;;;;5070239;28;20052;-76
2023/12/22 11:54:46;;;;;;;1.42;0.40;;;;;;;;;;5069888;28;20097;-74
2023/12/22 11:57:28;;;;;;;0.75;0.30;;;;;;;;;;5069942;28;20048;-75
2023/12/22 11:59:56;;;;;;;1.05;0.50;;;;;;;;;;5069698;28;20041;-73
2023/12/22 12:02:22;;;;;;;0.50;0.40;;;;;;;;;;5069897;28;20045;-78
2023/12/22 12:04:53;;;;;;;0.60;0.40;;;;;;;;;;5069745;28;20048;-79
2023/12/22 12:07:56;;;;;;;;;;;;;;;;;;5070248;28;20102;-77
2023/12/22 12:10:32;;;;;;;0.45;0.30;;;;;;;;;;4987538;28;19926;-79
2023/12/22 12:13:09;;;;;;;0.70;0.30;;;;;;;;;;5058741;28;20444;-80
2023/12/22 12:15:38;;;;;;;3.25;0.40;;;;;;;;;;5069755;28;20065;-75
2023/12/22 12:18:08;;;;;;;1.73;0.57;;;;;;;;;;5069716;28;20048;-80
2023/12/22 12:20:38;;;;;;;1.83;0.40;;;;;;;;;;5069606;28;20040;-79
2023/12/22 12:23:05;;;;;;;0.95;0.40;;;;;;;;;;5069303;28;20621;-78
2023/12/22 12:25:34;;;;;;;1.38;0.60;;;;;;;;;;5048274;28;20144;-77
2023/12/22 12:28:07;;;;;;;0.80;0.40;;;;;;;;;;5050498;28;20064;-80
2023/12/22 12:30:39;;;;;;;0.63;0.50;;;;;;;;;;5048662;28;20048;-80
2023/12/22 12:33:07;;;;;;;1.98;0.40;;;;;;;;;;5048248;28;20421;-79
2023/12/22 12:35:35;;;;;;;1.38;0.57;;;;;;;;;;5049679;28;20138;-79
2023/12/22 12:38:10;;;;;;;0.90;0.40;;;;;;;;;;5047160;28;20045;-80
2023/12/22 12:40:40;;;;;;;0.75;0.40;;;;;;;;;;5047518;28;20421;-76
2023/12/22 12:43:08;;;;;;;0.93;0.52;;;;;;;;;;5047782;28;20098;-79
2023/12/22 12:45:34;;;;;;;1.73;0.50;;;;;;;;;;5047794;28;20041;-79
2023/12/22 12:48:03;;;;;;;2.05;0.40;;;;;;;;;;5047969;28;20053;-79
2023/12/22 12:50:33;;;;;;;1.70;0.50;;;;;;;;;;5062617;28;20044;-79
2023/12/22 12:53:00;;;;;;;0.82;0.40;;;;;;;;;;5048678;28;20081;-76
2023/12/22 12:55:28;;;;;;;0.60;0.38;;;;;;;;;;5049278;28;20094;-77
2023/12/22 12:57:55;;;;;;;0.75;0.40;;;;;;;;;;5048811;28;20110;-78
2023/12/22 13:00:27;;;;;;;1.55;0.47;;;;;;;;;;5049353;28;20061;-79
2023/12/22 13:03:02;;;;;;;1.00;0.40;;;;;;;;;;5049284;28;20049;-78
2023/12/22 13:05:30;;;;;;;0.52;0.30;;;;;;;;;;5048612;28;20507;-80
2023/12/22 13:08:09;;;;;;;0.30;0.30;;;;;;;;;;5048922;28;20386;-79
2023/12/22 13:10:37;;;;;;;1.42;0.40;;;;;;;;;;5048843;28;20077;-79
2023/12/22 13:13:04;;;;;;;1.02;0.50;;;;;;;;;;5049416;28;20049;-78
2023/12/22 13:15:31;;;;;;;1.10;0.40;;;;;;;;;;5049132;28;20485;-80
2023/12/22 13:17:58;;;;;;;1.10;0.30;;;;;;;;;;5049558;28;20083;-80
2023/12/22 13:20:25;;;;;;;0.80;0.50;;;;;;;;;;5048944;28;20060;-79
2023/12/22 13:22:52;;;;;;;1.77;0.50;;;;;;;;;;5049501;28;20115;-78
2023/12/22 13:25:21;;;;;;;0.40;0.28;;;;;;;;;;5052792;28;20520;-74
2023/12/22 13:27:49;;;;;;;1.50;0.55;;;;;;;;;;5068826;28;20055;-79
2023/12/22 13:30:32;;;;;;;1.20;0.57;;;;;;;;;;5068561;28;20102;-79
2023/12/22 13:32:59;;;;;;;0.35;0.30;;;;;;;;;;5068921;28;20056;-79
2023/12/22 13:35:27;;;;;;;1.30;0.50;;;;;;;;;;5068729;28;20571;-79
2023/12/22 13:37:54;;;;;;;0.63;0.40;;;;;;;;;;5069053;28;20527;-79
2023/12/22 13:40:22;;;;;;;1.17;0.55;;;;;;;;;;5068664;28;20088;-78
2023/12/22 13:42:58;;;;;;;0.60;0.30;;;;;;;;;;5069279;28;20040;-79
2023/12/22 13:45:25;;;;;;;0.47;0.30;;;;;;;;;;5068977;28;20121;-80
2023/12/22 13:47:52;;;;;;;0.57;0.30;;;;;;;;;;5068598;28;20052;-73
2023/12/22 13:50:22;;;;;;;0.43;0.30;;;;;;;;;;5068346;28;20044;-78
2023/12/22 13:52:50;;;;;;;0.63;0.38;;;;;;;;;;5068594;28;20194;-80
2023/12/22 13:55:22;;;;;;;0.70;0.20;;;;;;;;;;5068493;28;20083;-77
2023/12/22 13:57:59;;;;;;;0.63;0.30;;;;;;;;;;5068591;28;20041;-76
2023/12/22 14:00:29;;;;;;;0.50;0.40;;;;;;;;;;5068473;28;20045;-79
2023/12/22 14:02:56;;;;;;;1.85;0.38;;;;;;;;;;5067917;28;20041;-77
2023/12/22 14:05:23;;;;;;;0.55;0.28;;;;;;;;;;5077874;28;20054;-76
2023/12/22 14:07:50;;;;;;;0.70;0.40;;;;;;;;;;5080078;28;20441;-70
2023/12/22 14:10:18;;;;;;;0.30;0.30;;;;;;;;;;5068095;28;20063;-78
2023/12/22 14:12:45;;;;;;;0.30;0.20;;;;;;;;;;5063995;28;20105;-74
2023/12/22 14:15:12;;;;;;;2.00;0.28;;;;;;;;;;5088644;28;20151;-73
2023/12/22 14:17:42;;;;;;;0.73;0.40;;;;;;;;;;5089750;28;20048;-74
2023/12/22 14:20:12;;;;;;;1.30;0.50;;;;;;;;;;5069955;28;20044;-72
2023/12/22 14:22:39;;;;;;;0.30;0.20;;;;;;;;;;5071641;28;20048;-74
2023/12/22 14:25:06;;;;;;;0.80;0.40;;;;;;;;;;5053336;28;20132;-75
2023/12/22 14:27:33;;;;;;;0.30;0.28;;;;;;;;;;5070449;28;20067;-75
2023/12/22 14:30:00;;;;;;;1.13;0.32;;;;;;;;;;5052424;28;20056;-75
2023/12/22 14:32:27;;;;;;;1.27;0.40;;;;;;;;;;5070107;28;20052;-74
2023/12/22 14:34:53;;;;;;;0.88;0.32;;;;;;;;;;5070245;28;20045;-76
2023/12/22 14:37:21;;;;;;;2.30;0.43;;;;;;;;;;5071568;28;20574;-74
2023/12/22 14:39:48;;;;;;;0.35;0.22;;;;;;;;;;5070055;28;20076;-75
2023/12/22 14:42:16;;;;;;;0.30;0.30;;;;;;;;;;5071207;28;20515;-75
2023/12/22 14:44:43;;;;;;;1.27;0.30;;;;;;;;;;5071273;28;20052;-74
2023/12/22 14:47:10;;;;;;;0.75;0.40;;;;;;;;;;5071656;28;20045;-76
2023/12/22 14:49:40;;;;;;;1.27;0.70;;;;;;;;;;5071355;28;20048;-77